Time;durP1;ratioP1;P1;durP2;ratioP2;P2;SDS_P1;SDS_P2;PMS_P1;PMS_P2;Temp;Humidity;BMP_temperature;BMP_pressure;BME280_temperature;BME280_humidity;BME280_pressure;Samples;Min_cycle;Max_cycle;Signal;HPM_P1;HPM_P2
2023/12/05 00:02:44;;;;;;;37.13;27.30;;;;;;;;;;5588995;31;34972;-70
2023/12/05 00:05:47;;;;;;;35.38;26.92;;;;;;;;;;5589026;31;34257;-70
2023/12/05 00:08:49;;;;;;;35.03;26.67;;;;;;;;;;5588937;31;34529;-72
2023/12/05 00:11:52;;;;;;;34.90;27.00;;;;;;;;;;5588059;31;35073;-71
2023/12/05 00:14:55;;;;;;;35.42;27.15;;;;;;;;;;5588877;31;33418;-72
2023/12/05 00:17:57;;;;;;;36.00;27.52;;;;;;;;;;5588749;31;34671;-71
2023/12/05 00:21:00;;;;;;;34.60;26.30;;;;;;;;;;5588584;31;34329;-72
2023/12/05 00:24:03;;;;;;;36.10;27.40;;;;;;;;;;5588821;31;34417;-72
2023/12/05 00:27:05;;;;;;;33.65;25.95;;;;;;;;;;5589190;31;34988;-72
2023/12/05 00:30:09;;;;;;;34.80;26.77;;;;;;;;;;5588716;31;34313;-72
2023/12/05 00:33:11;;;;;;;35.30;26.25;;;;;;;;;;5588741;31;35069;-72
2023/12/05 00:36:18;;;;;;;33.83;26.90;;;;;;;;;;5588422;31;34416;-72
2023/12/05 00:39:21;;;;;;;35.30;27.00;;;;;;;;;;5588811;31;34305;-73
2023/12/05 00:42:24;;;;;;;35.00;26.20;;;;;;;;;;5587964;31;34363;-72
2023/12/05 00:45:26;;;;;;;33.63;25.95;;;;;;;;;;5588721;31;34609;-72
2023/12/05 00:48:29;;;;;;;34.65;26.20;;;;;;;;;;5588470;31;34553;-72
2023/12/05 00:51:31;;;;;;;34.08;25.80;;;;;;;;;;5588514;31;35035;-72
2023/12/05 00:54:34;;;;;;;32.28;26.20;;;;;;;;;;5588547;31;35139;-72
2023/12/05 00:57:37;;;;;;;33.50;26.42;;;;;;;;;;5588063;31;35052;-72
2023/12/05 01:00:40;;;;;;;34.13;26.52;;;;;;;;;;5588518;31;34887;-72
2023/12/05 01:03:42;;;;;;;36.30;27.13;;;;;;;;;;5588492;31;35306;-72
2023/12/05 01:06:46;;;;;;;35.08;26.40;;;;;;;;;;5588585;31;34435;-72
2023/12/05 01:09:48;;;;;;;33.20;26.12;;;;;;;;;;5588414;31;34478;-71
2023/12/05 01:12:51;;;;;;;32.88;26.37;;;;;;;;;;5588500;31;34450;-73
2023/12/05 01:15:53;;;;;;;33.10;26.48;;;;;;;;;;5588490;31;34554;-73
2023/12/05 01:18:56;;;;;;;35.90;27.13;;;;;;;;;;5588496;31;33133;-72
2023/12/05 01:21:59;;;;;;;32.88;25.27;;;;;;;;;;5588355;31;35115;-72
2023/12/05 01:25:03;;;;;;;35.92;26.45;;;;;;;;;;5587776;31;34303;-72
2023/12/05 01:28:05;;;;;;;33.60;26.48;;;;;;;;;;5588301;31;34944;-72
2023/12/05 01:31:08;;;;;;;34.92;27.13;;;;;;;;;;5588288;31;34266;-72
2023/12/05 01:34:11;;;;;;;35.80;26.80;;;;;;;;;;5587078;31;35081;-73
2023/12/05 01:37:14;;;;;;;33.58;26.20;;;;;;;;;;5588404;31;35072;-75
2023/12/05 01:40:16;;;;;;;34.15;27.08;;;;;;;;;;5588333;31;34410;-72
2023/12/05 01:43:19;;;;;;;34.08;25.73;;;;;;;;;;5588522;31;34437;-73
2023/12/05 01:46:22;;;;;;;36.42;28.38;;;;;;;;;;5588203;31;34558;-72
2023/12/05 01:49:24;;;;;;;35.20;26.90;;;;;;;;;;5588086;31;35235;-72
2023/12/05 01:52:31;;;;;;;34.80;26.90;;;;;;;;;;5587455;31;34378;-72
2023/12/05 01:55:35;;;;;;;35.70;26.92;;;;;;;;;;5588112;31;34513;-73
2023/12/05 01:58:38;;;;;;;36.40;27.80;;;;;;;;;;5587309;31;34581;-72
2023/12/05 02:01:40;;;;;;;35.97;27.15;;;;;;;;;;5587978;31;35160;-72
2023/12/05 02:04:44;;;;;;;36.03;27.70;;;;;;;;;;5588254;31;35114;-71
2023/12/05 02:07:47;;;;;;;35.58;27.40;;;;;;;;;;5588266;31;35004;-72
2023/12/05 02:10:49;;;;;;;35.70;27.58;;;;;;;;;;5587818;31;34977;-71
2023/12/05 02:13:52;;;;;;;35.25;27.87;;;;;;;;;;5587563;31;34345;-72
2023/12/05 02:17:05;;;;;;;35.88;28.40;;;;;;;;;;5587722;31;35107;-71
2023/12/05 02:20:08;;;;;;;37.72;28.85;;;;;;;;;;5587545;31;35313;-72
2023/12/05 02:23:40;;;;;;;38.33;28.70;;;;;;;;;;5587021;31;34440;-72
2023/12/05 02:26:49;;;;;;;36.50;28.60;;;;;;;;;;5519297;31;34183;-72
2023/12/05 02:29:52;;;;;;;38.33;30.02;;;;;;;;;;5587445;31;35013;-72
2023/12/05 02:32:54;;;;;;;40.30;29.27;;;;;;;;;;5587602;31;34450;-72
2023/12/05 02:36:17;;;;;;;41.17;29.85;;;;;;;;;;5587408;31;34500;-72
2023/12/05 02:39:25;;;;;;;39.55;30.60;;;;;;;;;;5587673;31;34002;-72
2023/12/05 02:42:29;;;;;;;39.30;30.25;;;;;;;;;;5587376;31;35069;-71
2023/12/05 02:45:32;;;;;;;38.60;29.67;;;;;;;;;;5588426;31;35348;-72
2023/12/05 02:48:36;;;;;;;40.38;29.90;;;;;;;;;;5590045;31;35057;-72
2023/12/05 02:51:40;;;;;;;37.28;29.00;;;;;;;;;;5589835;31;35334;-72
2023/12/05 02:54:42;;;;;;;39.50;30.55;;;;;;;;;;5589841;31;34223;-72
2023/12/05 02:57:45;;;;;;;38.78;29.75;;;;;;;;;;5589675;31;35154;-72
2023/12/05 03:00:48;;;;;;;38.50;29.63;;;;;;;;;;5589625;31;34369;-72
2023/12/05 03:03:51;;;;;;;38.38;30.27;;;;;;;;;;5589249;31;35090;-72
2023/12/05 03:06:54;;;;;;;38.25;29.87;;;;;;;;;;5588894;31;34988;-72
2023/12/05 03:09:56;;;;;;;36.97;29.17;;;;;;;;;;5589609;31;34335;-72
2023/12/05 03:12:59;;;;;;;38.33;29.42;;;;;;;;;;5589387;31;34184;-72
2023/12/05 03:16:02;;;;;;;39.47;30.83;;;;;;;;;;5589411;31;35092;-72
2023/12/05 03:19:05;;;;;;;40.45;30.50;;;;;;;;;;5589535;31;35046;-73
2023/12/05 03:22:08;;;;;;;40.78;30.42;;;;;;;;;;5589284;31;34907;-73
2023/12/05 03:25:11;;;;;;;39.35;30.73;;;;;;;;;;5589404;31;34390;-73
2023/12/05 03:28:14;;;;;;;40.25;30.73;;;;;;;;;;5589504;31;34328;-73
2023/12/05 03:31:17;;;;;;;40.50;30.55;;;;;;;;;;5589587;31;34345;-71
2023/12/05 03:34:19;;;;;;;40.78;30.88;;;;;;;;;;5589726;31;35061;-71
2023/12/05 03:37:22;;;;;;;42.38;32.05;;;;;;;;;;5589271;31;34366;-71
2023/12/05 03:40:24;;;;;;;40.53;31.30;;;;;;;;;;5589202;31;35253;-72
2023/12/05 03:43:27;;;;;;;41.45;32.28;;;;;;;;;;5589299;31;34526;-72
2023/12/05 03:46:29;;;;;;;39.28;30.95;;;;;;;;;;5589366;31;34316;-72
2023/12/05 03:49:33;;;;;;;41.80;31.83;;;;;;;;;;5588473;31;34621;-72
2023/12/05 03:52:35;;;;;;;42.38;31.62;;;;;;;;;;5589006;31;34579;-72
2023/12/05 03:55:39;;;;;;;42.05;32.05;;;;;;;;;;5588937;31;34556;-72
2023/12/05 03:58:41;;;;;;;43.97;32.15;;;;;;;;;;5588944;31;34420;-72
2023/12/05 04:01:44;;;;;;;40.75;31.35;;;;;;;;;;5589155;31;34256;-71
2023/12/05 04:04:47;;;;;;;42.20;32.45;;;;;;;;;;5589597;31;32715;-71
2023/12/05 04:07:49;;;;;;;41.05;31.40;;;;;;;;;;5588341;31;34355;-71
2023/12/05 04:10:52;;;;;;;43.20;31.77;;;;;;;;;;5589081;31;35085;-72
2023/12/05 04:13:55;;;;;;;47.53;31.98;;;;;;;;;;5588889;31;35090;-72
2023/12/05 04:16:57;;;;;;;41.13;31.33;;;;;;;;;;5588909;31;35026;-72
2023/12/05 04:20:00;;;;;;;42.42;31.67;;;;;;;;;;5589285;31;34492;-72
2023/12/05 04:23:03;;;;;;;43.67;32.83;;;;;;;;;;5589031;31;35321;-72
2023/12/05 04:26:06;;;;;;;43.03;32.13;;;;;;;;;;5588905;31;34373;-73
2023/12/05 04:29:10;;;;;;;42.88;31.80;;;;;;;;;;5589209;31;34316;-73
2023/12/05 04:32:13;;;;;;;42.95;31.27;;;;;;;;;;5588759;31;34730;-72
2023/12/05 04:35:16;;;;;;;41.17;31.08;;;;;;;;;;5588752;31;35076;-72
2023/12/05 04:38:19;;;;;;;42.58;31.37;;;;;;;;;;5588713;31;34582;-72
2023/12/05 04:41:22;;;;;;;39.42;30.77;;;;;;;;;;5588818;31;34529;-72
2023/12/05 04:44:27;;;;;;;44.22;32.47;;;;;;;;;;5589134;31;34314;-71
2023/12/05 04:47:30;;;;;;;43.50;32.08;;;;;;;;;;5589155;31;35101;-72
2023/12/05 04:50:33;;;;;;;41.25;30.98;;;;;;;;;;5588693;31;32735;-72
2023/12/05 04:53:36;;;;;;;40.83;30.80;;;;;;;;;;5588756;31;35204;-71
2023/12/05 04:56:39;;;;;;;41.67;29.45;;;;;;;;;;5589099;31;34370;-71
2023/12/05 04:59:41;;;;;;;40.35;30.25;;;;;;;;;;5588194;31;35104;-71
2023/12/05 05:02:44;;;;;;;42.90;30.73;;;;;;;;;;5588672;31;34350;-70
2023/12/05 05:05:46;;;;;;;39.40;30.50;;;;;;;;;;5588804;31;34965;-71
2023/12/05 05:08:49;;;;;;;43.67;31.75;;;;;;;;;;5588429;31;34384;-71
2023/12/05 05:11:52;;;;;;;41.85;31.58;;;;;;;;;;5588380;31;35083;-70
2023/12/05 05:14:54;;;;;;;42.78;32.17;;;;;;;;;;5588448;31;34309;-71
2023/12/05 05:17:58;;;;;;;44.28;32.28;;;;;;;;;;5587707;31;34578;-70
2023/12/05 05:21:00;;;;;;;42.78;31.33;;;;;;;;;;5588230;31;35113;-71
2023/12/05 05:24:03;;;;;;;44.17;31.90;;;;;;;;;;5587576;31;34125;-69
2023/12/05 05:27:06;;;;;;;39.65;31.33;;;;;;;;;;5587726;31;35077;-70
2023/12/05 05:30:10;;;;;;;42.78;31.05;;;;;;;;;;5588493;31;35102;-71
2023/12/05 05:33:12;;;;;;;44.17;31.60;;;;;;;;;;5588142;31;35030;-71
2023/12/05 05:36:15;;;;;;;41.25;31.02;;;;;;;;;;5588297;31;34462;-71
2023/12/05 05:39:18;;;;;;;41.72;31.27;;;;;;;;;;5588226;31;35141;-71
2023/12/05 05:42:21;;;;;;;40.38;31.23;;;;;;;;;;5588055;31;35166;-72
2023/12/05 05:45:23;;;;;;;41.00;30.67;;;;;;;;;;5587596;31;35064;-71
2023/12/05 05:48:26;;;;;;;44.17;32.60;;;;;;;;;;5588232;31;35142;-71
2023/12/05 05:51:29;;;;;;;41.15;32.03;;;;;;;;;;5588460;31;34307;-71
2023/12/05 05:54:32;;;;;;;43.67;32.33;;;;;;;;;;5587985;31;34808;-71
2023/12/05 05:57:35;;;;;;;45.03;33.45;;;;;;;;;;5588027;31;34761;-72
2023/12/05 06:00:38;;;;;;;43.10;33.33;;;;;;;;;;5588234;31;35047;-71
2023/12/05 06:03:41;;;;;;;44.58;33.20;;;;;;;;;;5588084;31;34444;-72
2023/12/05 06:06:44;;;;;;;41.47;30.80;;;;;;;;;;5588020;31;34403;-71
2023/12/05 06:09:47;;;;;;;39.63;30.58;;;;;;;;;;5587780;31;35094;-71
2023/12/05 06:12:49;;;;;;;41.35;30.30;;;;;;;;;;5586572;31;35324;-72
2023/12/05 06:15:52;;;;;;;41.03;30.90;;;;;;;;;;5587455;31;34389;-72
2023/12/05 06:18:54;;;;;;;40.53;30.77;;;;;;;;;;5587390;31;34315;-72
2023/12/05 06:21:57;;;;;;;41.15;31.73;;;;;;;;;;5587169;31;34250;-72
2023/12/05 06:25:00;;;;;;;42.83;31.77;;;;;;;;;;5586873;31;35213;-72
2023/12/05 06:28:03;;;;;;;42.92;31.95;;;;;;;;;;5587648;31;34526;-72
2023/12/05 06:31:05;;;;;;;44.92;33.08;;;;;;;;;;5586637;31;34634;-72
2023/12/05 06:34:08;;;;;;;44.08;34.03;;;;;;;;;;5587597;31;34292;-71
2023/12/05 06:37:12;;;;;;;46.40;34.20;;;;;;;;;;5587577;31;35130;-72
2023/12/05 06:40:15;;;;;;;45.15;33.55;;;;;;;;;;5587023;31;34270;-71
2023/12/05 06:43:18;;;;;;;47.13;33.83;;;;;;;;;;5587160;31;34343;-72
2023/12/05 06:46:20;;;;;;;44.45;33.90;;;;;;;;;;5586333;31;34245;-72
2023/12/05 06:49:23;;;;;;;41.53;31.87;;;;;;;;;;5586705;31;34224;-72
2023/12/05 06:52:26;;;;;;;42.38;32.03;;;;;;;;;;5586977;31;34466;-72
2023/12/05 06:55:28;;;;;;;41.47;32.40;;;;;;;;;;5586800;31;34600;-71
2023/12/05 06:58:32;;;;;;;41.53;31.60;;;;;;;;;;5587081;31;34432;-72
2023/12/05 07:01:34;;;;;;;43.65;31.92;;;;;;;;;;5586323;31;35106;-72
2023/12/05 07:04:37;;;;;;;41.63;31.42;;;;;;;;;;5585984;31;34399;-72
2023/12/05 07:07:40;;;;;;;43.87;32.05;;;;;;;;;;5585968;31;34673;-71
2023/12/05 07:10:43;;;;;;;45.63;32.42;;;;;;;;;;5586697;31;34274;-72
2023/12/05 07:13:45;;;;;;;40.17;31.00;;;;;;;;;;5586571;31;34381;-71
2023/12/05 07:16:48;;;;;;;42.90;31.98;;;;;;;;;;5586834;31;35028;-71
2023/12/05 07:19:50;;;;;;;41.35;31.77;;;;;;;;;;5586702;31;34378;-71
2023/12/05 07:22:53;;;;;;;43.20;32.10;;;;;;;;;;5586608;31;35024;-71
2023/12/05 07:25:56;;;;;;;42.05;31.10;;;;;;;;;;5586212;31;35389;-72
2023/12/05 07:28:59;;;;;;;43.70;32.35;;;;;;;;;;5586949;31;34609;-72
2023/12/05 07:32:02;;;;;;;41.45;31.27;;;;;;;;;;5588033;31;34388;-71
2023/12/05 07:35:05;;;;;;;42.78;32.38;;;;;;;;;;5589288;31;34558;-71
2023/12/05 07:38:08;;;;;;;41.33;30.88;;;;;;;;;;5589063;31;34679;-71
2023/12/05 07:41:17;;;;;;;42.83;32.60;;;;;;;;;;5589102;31;35079;-71
2023/12/05 07:44:20;;;;;;;41.63;30.77;;;;;;;;;;5589061;31;34570;-71
2023/12/05 07:47:23;;;;;;;41.25;30.85;;;;;;;;;;5587995;31;34209;-70
2023/12/05 07:50:26;;;;;;;44.33;31.77;;;;;;;;;;5588857;31;34415;-71
2023/12/05 07:53:28;;;;;;;43.67;30.55;;;;;;;;;;5589241;31;34329;-71
2023/12/05 07:56:31;;;;;;;43.05;30.30;;;;;;;;;;5588801;31;35302;-71
2023/12/05 07:59:34;;;;;;;40.05;30.83;;;;;;;;;;5588773;31;34343;-71
2023/12/05 08:02:36;;;;;;;42.65;31.35;;;;;;;;;;5589235;31;34438;-71
2023/12/05 08:05:39;;;;;;;40.65;30.17;;;;;;;;;;5589004;31;34366;-73
2023/12/05 08:08:41;;;;;;;44.78;33.13;;;;;;;;;;5588706;31;34227;-71
2023/12/05 08:11:44;;;;;;;45.10;32.35;;;;;;;;;;5588652;31;34532;-71
2023/12/05 08:14:47;;;;;;;40.80;30.75;;;;;;;;;;5587859;31;34345;-71
2023/12/05 08:17:49;;;;;;;43.83;30.30;;;;;;;;;;5588515;31;35221;-72
2023/12/05 08:20:52;;;;;;;41.05;30.45;;;;;;;;;;5588738;31;34398;-71
2023/12/05 08:23:55;;;;;;;42.03;31.23;;;;;;;;;;5588045;31;34385;-71
2023/12/05 08:26:58;;;;;;;41.85;30.25;;;;;;;;;;5588633;31;34888;-71
2023/12/05 08:30:02;;;;;;;39.65;30.92;;;;;;;;;;5588211;31;34484;-72
2023/12/05 08:33:05;;;;;;;41.25;31.27;;;;;;;;;;5588524;31;35125;-72
2023/12/05 08:36:09;;;;;;;40.78;31.23;;;;;;;;;;5588518;31;34523;-72
2023/12/05 08:39:12;;;;;;;39.75;29.85;;;;;;;;;;5589025;31;34614;-72
2023/12/05 08:42:14;;;;;;;41.58;30.90;;;;;;;;;;5588063;31;35140;-72
2023/12/05 08:45:18;;;;;;;40.28;30.02;;;;;;;;;;5588758;31;34331;-72
2023/12/05 08:48:21;;;;;;;39.63;30.20;;;;;;;;;;5588742;31;34251;-73
2023/12/05 08:51:23;;;;;;;42.42;29.58;;;;;;;;;;5588516;31;34988;-75
2023/12/05 08:54:26;;;;;;;39.97;29.25;;;;;;;;;;5588447;31;34350;-72
2023/12/05 08:57:29;;;;;;;39.50;30.55;;;;;;;;;;5587936;31;35233;-72
2023/12/05 09:00:32;;;;;;;42.25;31.17;;;;;;;;;;5588214;31;34421;-72
2023/12/05 09:03:34;;;;;;;41.28;31.02;;;;;;;;;;5588513;31;34574;-73
2023/12/05 09:06:37;;;;;;;39.72;30.65;;;;;;;;;;5588572;31;34389;-73
2023/12/05 09:09:42;;;;;;;42.05;30.85;;;;;;;;;;5588546;31;32722;-73
2023/12/05 09:12:45;;;;;;;42.30;30.80;;;;;;;;;;5588312;31;34233;-73
2023/12/05 09:15:47;;;;;;;41.13;30.52;;;;;;;;;;5588233;31;34658;-73
2023/12/05 09:18:51;;;;;;;40.63;30.12;;;;;;;;;;5588460;31;34346;-73
2023/12/05 09:21:53;;;;;;;43.08;30.95;;;;;;;;;;5588159;31;34314;-73
2023/12/05 09:24:56;;;;;;;42.40;29.73;;;;;;;;;;5588700;31;34321;-73
2023/12/05 09:27:59;;;;;;;39.70;30.60;;;;;;;;;;5588085;31;34532;-74
2023/12/05 09:31:02;;;;;;;41.55;29.45;;;;;;;;;;5588189;31;34757;-74
2023/12/05 09:34:04;;;;;;;40.38;29.20;;;;;;;;;;5588214;31;35126;-73
2023/12/05 09:37:07;;;;;;;38.85;29.73;;;;;;;;;;5587329;31;35126;-73
2023/12/05 09:40:12;;;;;;;40.53;30.75;;;;;;;;;;5587119;31;34490;-73
2023/12/05 09:43:15;;;;;;;39.70;30.50;;;;;;;;;;5587891;31;34611;-73
2023/12/05 09:46:21;;;;;;;40.12;30.55;;;;;;;;;;5588142;31;35048;-73
2023/12/05 09:49:26;;;;;;;41.95;31.50;;;;;;;;;;5587992;31;34124;-73
2023/12/05 09:52:30;;;;;;;41.53;31.15;;;;;;;;;;5587946;31;34599;-73
2023/12/05 09:55:33;;;;;;;39.28;29.65;;;;;;;;;;5586620;31;34366;-73
2023/12/05 09:58:45;;;;;;;42.72;32.38;;;;;;;;;;5587815;31;34616;-73
2023/12/05 10:01:51;;;;;;;44.75;31.17;;;;;;;;;;5587302;31;35075;-72
2023/12/05 10:04:58;;;;;;;39.05;30.08;;;;;;;;;;5587997;31;34634;-73
2023/12/05 10:08:01;;;;;;;43.97;31.52;;;;;;;;;;5587691;31;34986;-73
2023/12/05 10:11:04;;;;;;;44.10;31.30;;;;;;;;;;5586840;31;35046;-72
2023/12/05 10:14:07;;;;;;;45.90;32.28;;;;;;;;;;5587379;31;34286;-72
2023/12/05 10:17:10;;;;;;;39.97;31.05;;;;;;;;;;5587715;31;34370;-72
2023/12/05 10:20:13;;;;;;;45.65;31.90;;;;;;;;;;5587613;31;34361;-73
2023/12/05 10:23:17;;;;;;;38.88;30.23;;;;;;;;;;5587510;31;34216;-72
2023/12/05 10:26:20;;;;;;;39.97;30.98;;;;;;;;;;5587860;31;34964;-73
2023/12/05 10:29:35;;;;;;;42.15;30.92;;;;;;;;;;5587534;31;34785;-72
2023/12/05 10:32:38;;;;;;;42.22;31.58;;;;;;;;;;5587853;31;35513;-72
2023/12/05 10:35:45;;;;;;;46.40;31.12;;;;;;;;;;5586631;31;35073;-73
2023/12/05 10:38:48;;;;;;;40.95;29.80;;;;;;;;;;5587620;31;34516;-73
2023/12/05 10:41:50;;;;;;;42.10;31.67;;;;;;;;;;5587351;31;34393;-74
2023/12/05 10:44:56;;;;;;;39.42;29.65;;;;;;;;;;5587118;31;34544;-74
2023/12/05 10:48:00;;;;;;;41.65;30.55;;;;;;;;;;5587544;31;34300;-72
2023/12/05 10:51:03;;;;;;;41.03;29.50;;;;;;;;;;5589921;31;35029;-72
2023/12/05 10:54:06;;;;;;;37.85;28.45;;;;;;;;;;5588887;31;34369;-73
2023/12/05 10:57:11;;;;;;;39.55;30.67;;;;;;;;;;5589608;31;33851;-72
2023/12/05 11:00:14;;;;;;;40.00;28.52;;;;;;;;;;5587636;31;34671;-73
2023/12/05 11:03:17;;;;;;;39.85;29.42;;;;;;;;;;5586603;31;34421;-73
2023/12/05 11:06:21;;;;;;;39.92;29.30;;;;;;;;;;5588630;31;34435;-75
2023/12/05 11:09:24;;;;;;;41.37;30.12;;;;;;;;;;5589594;31;34772;-73
2023/12/05 11:12:28;;;;;;;39.78;30.20;;;;;;;;;;5589738;31;33968;-73
2023/12/05 11:15:36;;;;;;;38.80;29.20;;;;;;;;;;5589189;31;34060;-72
2023/12/05 11:18:40;;;;;;;41.60;31.02;;;;;;;;;;5589997;31;34321;-72
2023/12/05 11:21:46;;;;;;;43.55;29.50;;;;;;;;;;5588749;31;33716;-72
2023/12/05 11:24:58;;;;;;;42.90;29.87;;;;;;;;;;5589623;31;34177;-72
2023/12/05 11:28:07;;;;;;;42.92;30.58;;;;;;;;;;5589161;31;35061;-71
2023/12/05 11:31:29;;;;;;;44.80;33.47;;;;;;;;;;5588658;31;35291;-72
2023/12/05 11:35:01;;;;;;;42.42;30.45;;;;;;;;;;5589165;31;35112;-72
2023/12/05 11:38:12;;;;;;;41.95;31.33;;;;;;;;;;5566617;31;34252;-72
2023/12/05 11:41:19;;;;;;;42.97;31.45;;;;;;;;;;5588354;31;35013;-72
2023/12/05 11:44:22;;;;;;;42.70;31.85;;;;;;;;;;5589120;31;35056;-72
2023/12/05 11:47:27;;;;;;;42.83;30.77;;;;;;;;;;5588631;31;34289;-72
2023/12/05 11:50:43;;;;;;;43.20;31.10;;;;;;;;;;5588815;31;35060;-71
2023/12/05 11:53:49;;;;;;;43.45;31.10;;;;;;;;;;5588617;31;34377;-71
2023/12/05 11:57:08;;;;;;;43.30;32.22;;;;;;;;;;5588217;31;35104;-71
2023/12/05 12:00:13;;;;;;;45.45;31.40;;;;;;;;;;5588781;31;34086;-71
2023/12/05 12:03:15;;;;;;;39.10;30.23;;;;;;;;;;5588069;31;35340;-71
2023/12/05 12:06:19;;;;;;;43.08;31.33;;;;;;;;;;5588708;31;34301;-72
2023/12/05 12:09:22;;;;;;;41.90;30.25;;;;;;;;;;5588862;31;35111;-72
2023/12/05 12:12:25;;;;;;;43.20;30.60;;;;;;;;;;5588833;31;35108;-71
2023/12/05 12:15:34;;;;;;;43.05;30.95;;;;;;;;;;5586113;31;69527;-71
2023/12/05 12:18:37;;;;;;;41.53;32.67;;;;;;;;;;5588022;31;34317;-73
2023/12/05 12:21:52;;;;;;;40.42;30.95;;;;;;;;;;5588818;31;34661;-71
2023/12/05 12:25:13;;;;;;;41.22;31.20;;;;;;;;;;5588151;31;34360;-72
2023/12/05 12:28:23;;;;;;;42.95;31.98;;;;;;;;;;5588125;31;34261;-72
2023/12/05 12:31:26;;;;;;;43.50;31.45;;;;;;;;;;5589035;31;34402;-72
2023/12/05 12:34:30;;;;;;;41.53;30.58;;;;;;;;;;5588884;31;34769;-72
2023/12/05 12:37:33;;;;;;;37.50;28.73;;;;;;;;;;5588656;31;34605;-72
2023/12/05 12:40:51;;;;;;;37.25;28.80;;;;;;;;;;5587728;31;34562;-72
2023/12/05 12:43:53;;;;;;;38.92;29.27;;;;;;;;;;5588529;31;34276;-72
2023/12/05 12:46:56;;;;;;;40.92;29.70;;;;;;;;;;5588575;31;34586;-72
2023/12/05 12:50:00;;;;;;;39.47;30.30;;;;;;;;;;5588455;31;35126;-72
2023/12/05 12:53:04;;;;;;;38.50;29.83;;;;;;;;;;5587700;31;34369;-72
2023/12/05 12:56:09;;;;;;;39.53;29.23;;;;;;;;;;5588609;31;34176;-72
2023/12/05 12:59:12;;;;;;;41.85;30.12;;;;;;;;;;5588762;31;34667;-73
2023/12/05 13:02:18;;;;;;;39.60;30.42;;;;;;;;;;5588920;31;34425;-72
2023/12/05 13:05:31;;;;;;;41.00;30.37;;;;;;;;;;5589065;31;35082;-73
2023/12/05 13:08:34;;;;;;;41.83;30.88;;;;;;;;;;5588621;31;34511;-73
2023/12/05 13:11:37;;;;;;;41.95;31.17;;;;;;;;;;5588619;31;34281;-73
2023/12/05 13:14:40;;;;;;;40.58;31.00;;;;;;;;;;5588506;31;34257;-73
2023/12/05 13:17:55;;;;;;;44.38;32.50;;;;;;;;;;5588469;31;35099;-73
2023/12/05 13:20:58;;;;;;;45.47;32.35;;;;;;;;;;5588772;31;34054;-72
2023/12/05 13:24:02;;;;;;;45.67;32.90;;;;;;;;;;5588215;31;35064;-72
2023/12/05 13:27:04;;;;;;;43.20;31.77;;;;;;;;;;5588772;31;34414;-72
2023/12/05 13:30:08;;;;;;;47.33;32.30;;;;;;;;;;5588225;31;33253;-71
2023/12/05 13:33:11;;;;;;;41.95;31.48;;;;;;;;;;5588339;31;35037;-72
2023/12/05 13:36:15;;;;;;;42.78;31.50;;;;;;;;;;5587986;31;34641;-72
2023/12/05 13:39:17;;;;;;;43.80;32.63;;;;;;;;;;5588172;31;34196;-72
2023/12/05 13:42:20;;;;;;;43.22;31.65;;;;;;;;;;5588334;31;34181;-72
2023/12/05 13:45:23;;;;;;;43.65;32.28;;;;;;;;;;5588465;31;34450;-72
2023/12/05 13:48:29;;;;;;;41.67;30.75;;;;;;;;;;5587543;31;34135;-72
2023/12/05 13:51:32;;;;;;;42.33;31.60;;;;;;;;;;5588655;31;35109;-72
2023/12/05 13:54:35;;;;;;;42.40;32.40;;;;;;;;;;5588097;31;34667;-72
2023/12/05 13:57:38;;;;;;;44.65;32.67;;;;;;;;;;5588285;31;34485;-72
2023/12/05 14:00:41;;;;;;;44.72;32.95;;;;;;;;;;5588129;31;34239;-73
2023/12/05 14:03:44;;;;;;;42.83;32.95;;;;;;;;;;5587910;31;34172;-72
2023/12/05 14:06:46;;;;;;;44.40;32.35;;;;;;;;;;5587600;31;34535;-71
2023/12/05 14:09:49;;;;;;;48.22;33.55;;;;;;;;;;5587921;31;34965;-71
2023/12/05 14:12:52;;;;;;;46.58;33.60;;;;;;;;;;5587297;31;34964;-73
2023/12/05 14:15:55;;;;;;;47.95;33.78;;;;;;;;;;5587499;31;34393;-74
2023/12/05 14:18:58;;;;;;;50.10;35.13;;;;;;;;;;5588023;31;34569;-73
2023/12/05 14:22:00;;;;;;;48.80;35.35;;;;;;;;;;5587759;31;34908;-72
2023/12/05 14:25:06;;;;;;;46.45;35.28;;;;;;;;;;5586930;31;34364;-71
2023/12/05 14:28:09;;;;;;;46.10;34.53;;;;;;;;;;5587667;31;34370;-71
2023/12/05 14:31:12;;;;;;;45.95;35.20;;;;;;;;;;5587577;31;34301;-72
2023/12/05 14:34:14;;;;;;;47.47;34.80;;;;;;;;;;5587422;31;35128;-72
2023/12/05 14:37:18;;;;;;;47.92;34.38;;;;;;;;;;5587237;31;34697;-72
2023/12/05 14:40:21;;;;;;;46.45;34.22;;;;;;;;;;5586567;31;35090;-71
2023/12/05 14:43:24;;;;;;;46.13;33.47;;;;;;;;;;5586230;31;34402;-72
2023/12/05 14:46:26;;;;;;;46.25;34.75;;;;;;;;;;5587336;31;34465;-72
2023/12/05 14:49:29;;;;;;;47.78;35.70;;;;;;;;;;5587346;31;35035;-72
2023/12/05 14:52:32;;;;;;;48.13;34.55;;;;;;;;;;5586848;31;34345;-72
2023/12/05 14:55:34;;;;;;;48.50;34.30;;;;;;;;;;5586956;31;34447;-72
2023/12/05 14:58:37;;;;;;;47.58;34.13;;;;;;;;;;5587007;31;34379;-73
2023/12/05 15:01:40;;;;;;;51.40;37.13;;;;;;;;;;5586858;31;34540;-71
2023/12/05 15:04:43;;;;;;;49.67;36.58;;;;;;;;;;5586958;31;34477;-73
2023/12/05 15:07:45;;;;;;;50.97;36.47;;;;;;;;;;5586155;31;34586;-72
2023/12/05 15:10:48;;;;;;;55.22;37.78;;;;;;;;;;5586584;31;34631;-73
2023/12/05 15:13:50;;;;;;;51.35;38.40;;;;;;;;;;5586201;31;34138;-72
2023/12/05 15:16:54;;;;;;;56.03;39.35;;;;;;;;;;5586459;31;34519;-72
2023/12/05 15:19:57;;;;;;;54.40;39.47;;;;;;;;;;5585821;31;34305;-73
2023/12/05 15:23:19;;;;;;;53.97;39.85;;;;;;;;;;5585907;31;34301;-72
2023/12/05 15:26:23;;;;;;;54.03;38.95;;;;;;;;;;5586286;31;34606;-72
2023/12/05 15:29:26;;;;;;;53.47;40.00;;;;;;;;;;5585389;31;35044;-72
2023/12/05 15:32:50;;;;;;;54.28;39.65;;;;;;;;;;5586267;31;35078;-72
2023/12/05 15:35:54;;;;;;;56.50;38.35;;;;;;;;;;5586298;31;35026;-72
2023/12/05 15:38:57;;;;;;;55.33;38.58;;;;;;;;;;5585999;31;34765;-72
2023/12/05 15:41:59;;;;;;;56.25;41.13;;;;;;;;;;5586242;31;34298;-73
2023/12/05 15:45:02;;;;;;;55.95;40.03;;;;;;;;;;5586418;31;35236;-72
2023/12/05 15:48:08;;;;;;;57.40;41.03;;;;;;;;;;5585332;31;35129;-72
2023/12/05 15:51:35;;;;;;;57.92;41.25;;;;;;;;;;5585560;31;34369;-72
2023/12/05 15:54:37;;;;;;;57.70;42.22;;;;;;;;;;5588058;31;35041;-72
2023/12/05 15:57:43;;;;;;;62.70;44.72;;;;;;;;;;5588835;31;34483;-72
2023/12/05 16:00:46;;;;;;;56.00;41.30;;;;;;;;;;5588105;31;34368;-72
2023/12/05 16:04:01;;;;;;;56.15;41.97;;;;;;;;;;5588858;31;34529;-72
2023/12/05 16:07:05;;;;;;;58.60;40.45;;;;;;;;;;5587926;31;34388;-72
2023/12/05 16:10:08;;;;;;;59.67;42.00;;;;;;;;;;5574937;31;35227;-73
2023/12/05 16:13:11;;;;;;;58.53;41.85;;;;;;;;;;5588809;31;34500;-73
2023/12/05 16:16:14;;;;;;;62.33;42.00;;;;;;;;;;5588956;31;34375;-72
2023/12/05 16:19:16;;;;;;;56.45;41.08;;;;;;;;;;5588969;31;34350;-71
2023/12/05 16:22:19;;;;;;;55.85;39.90;;;;;;;;;;5589286;31;34372;-72
2023/12/05 16:25:22;;;;;;;57.47;41.42;;;;;;;;;;5589112;31;35661;-73
2023/12/05 16:28:25;;;;;;;57.78;40.95;;;;;;;;;;5589182;31;34927;-73
2023/12/05 16:31:28;;;;;;;59.35;42.85;;;;;;;;;;5588976;31;34469;-73
2023/12/05 16:34:31;;;;;;;54.90;40.55;;;;;;;;;;5588517;31;34293;-72
2023/12/05 16:37:34;;;;;;;54.75;39.78;;;;;;;;;;5588713;31;34411;-74
2023/12/05 16:40:38;;;;;;;60.03;41.10;;;;;;;;;;5588476;31;34570;-72
2023/12/05 16:43:41;;;;;;;56.45;40.60;;;;;;;;;;5588502;31;34466;-74
2023/12/05 16:46:44;;;;;;;55.10;40.03;;;;;;;;;;5588680;31;34421;-73
2023/12/05 16:49:47;;;;;;;57.62;40.12;;;;;;;;;;5587961;31;34384;-72
2023/12/05 16:52:50;;;;;;;58.65;41.58;;;;;;;;;;5588843;31;34291;-72
2023/12/05 16:55:52;;;;;;;59.88;41.75;;;;;;;;;;5588299;31;34292;-72
2023/12/05 16:58:55;;;;;;;59.70;42.28;;;;;;;;;;5588524;31;34259;-72
2023/12/05 17:01:58;;;;;;;56.35;40.88;;;;;;;;;;5588554;31;34423;-72
2023/12/05 17:05:02;;;;;;;61.72;42.83;;;;;;;;;;5588336;31;34401;-73
2023/12/05 17:08:05;;;;;;;61.97;42.58;;;;;;;;;;5587926;31;34460;-72
2023/12/05 17:11:08;;;;;;;59.55;41.45;;;;;;;;;;5588485;31;35432;-72
2023/12/05 17:14:11;;;;;;;63.20;42.00;;;;;;;;;;5587864;31;34424;-71
2023/12/05 17:17:14;;;;;;;61.35;42.67;;;;;;;;;;5588760;31;33848;-71
2023/12/05 17:20:16;;;;;;;61.13;42.60;;;;;;;;;;5588415;31;34481;-72
2023/12/05 17:23:20;;;;;;;61.63;42.35;;;;;;;;;;5588665;31;34304;-72
2023/12/05 17:26:23;;;;;;;58.60;43.67;;;;;;;;;;5588411;31;34319;-72
2023/12/05 17:29:27;;;;;;;62.42;41.90;;;;;;;;;;5588437;31;34562;-72
2023/12/05 17:32:29;;;;;;;64.45;42.30;;;;;;;;;;5588737;31;34406;-72
2023/12/05 17:35:32;;;;;;;62.75;42.08;;;;;;;;;;5588136;31;35278;-71
2023/12/05 17:38:35;;;;;;;62.42;41.63;;;;;;;;;;5588224;31;34489;-72
2023/12/05 17:41:37;;;;;;;59.42;41.08;;;;;;;;;;5588262;31;34631;-73
2023/12/05 17:44:40;;;;;;;58.00;42.00;;;;;;;;;;5587904;31;34246;-72
2023/12/05 17:47:43;;;;;;;63.50;44.45;;;;;;;;;;5587357;31;34420;-72
2023/12/05 17:50:45;;;;;;;62.72;42.60;;;;;;;;;;5588248;31;35127;-72